Time;durP1;ratioP1;P1;durP2;ratioP2;P2;SDS_P1;SDS_P2;PMS_P1;PMS_P2;Temp;Humidity;BMP_temperature;BMP_pressure;BME280_temperature;BME280_humidity;BME280_pressure;Samples;Min_cycle;Max_cycle;Signal;HPM_P1;HPM_P2
2022/07/21 00:01:29;;;;;;;10.5;8.6;;;;;;;22.83;75.39551;941.4657;;;;
2022/07/21 00:03:56;;;;;;;9.8;8.8;;;;;;;22.82;75.18262;941.4495;;;;
2022/07/21 00:06:21;;;;;;;10.2;8.2;;;;;;;22.82;75.05469;941.476;;;;
2022/07/21 00:08:49;;;;;;;9.4;8.5;;;;;;;22.84;74.58887;941.4578;;;;
2022/07/21 00:11:14;;;;;;;10.5;8.9;;;;;;;22.66;74.94531;941.4785;;;;
2022/07/21 00:13:40;;;;;;;9.4;8.5;;;;;;;22.71;74.75391;941.4972;;;;
2022/07/21 00:16:13;;;;;;;9;8.1;;;;;;;22.59;74.83984;941.5463;;;;
2022/07/21 00:18:39;;;;;;;10.4;8.3;;;;;;;22.52;75.23926;941.5541;;;;
2022/07/21 00:21:04;;;;;;;8.9;8;;;;;;;22.42;75.78418;941.6252;;;;
2022/07/21 00:23:30;;;;;;;9.6;8.5;;;;;;;22.34;76.01855;941.66;;;;
2022/07/21 00:25:55;;;;;;;9.2;8.2;;;;;;;22.36;75.69141;941.6092;;;;
2022/07/21 00:28:21;;;;;;;8.7;7.8;;;;;;;22.42;75.55078;941.561;;;;
2022/07/21 00:30:46;;;;;;;9.7;8.7;;;;;;;22.43;75.59766;941.5992;;;;
2022/07/21 00:33:14;;;;;;;10;8.5;;;;;;;22.44;75.44824;941.5623;;;;
2022/07/21 00:35:39;;;;;;;9.8;8.2;;;;;;;22.53;74.99414;941.5483;;;;
2022/07/21 00:38:04;;;;;;;11.3;8.4;;;;;;;22.5;74.69629;941.5369;;;;
2022/07/21 00:40:29;;;;;;;10.7;8.2;;;;;;;22.53;74.19629;941.5531;;;;
2022/07/21 00:42:56;;;;;;;10.1;8.9;;;;;;;22.53;74.53711;941.5334;;;;
2022/07/21 00:45:21;;;;;;;9;8.1;;;;;;;22.57;74.46094;941.5323;;;;
2022/07/21 00:47:49;;;;;;;10.3;8.3;;;;;;;22.61;73.7627;941.5197;;;;
2022/07/21 00:50:14;;;;;;;9.6;8.6;;;;;;;22.59;73.18652;941.4828;;;;
2022/07/21 00:52:43;;;;;;;8.8;7.9;;;;;;;22.56;73.56738;941.5081;;;;
2022/07/21 00:55:09;;;;;;;10.8;8.1;;;;;;;22.43;74.17871;941.4556;;;;
2022/07/21 00:57:33;;;;;;;8.5;7.7;;;;;;;22.41;74.375;941.4461;;;;
2022/07/21 01:00:02;;;;;;;10.3;8.4;;;;;;;22.42;74.18848;941.3898;;;;
2022/07/21 01:02:35;;;;;;;8.7;7.9;;;;;;;22.37;74.38086;941.4344;;;;
2022/07/21 01:04:57;;;;;;;9.9;7.9;;;;;;;22.39;74.14941;941.3681;;;;
2022/07/21 01:07:22;;;;;;;9.5;8.5;;;;;;;22.42;73.67383;941.3524;;;;
2022/07/21 01:09:47;;;;;;;9.2;8.3;;;;;;;22.42;73.70898;941.3719;;;;
2022/07/21 01:12:14;;;;;;;9.6;8.6;;;;;;;22.41;73.5293;941.3797;;;;
2022/07/21 01:14:39;;;;;;;9.3;8.4;;;;;;;22.45;73.08008;941.4087;;;;
2022/07/21 01:17:06;;;;;;;10.6;9.1;;;;;;;22.39;73.73828;941.4078;;;;
2022/07/21 01:19:31;;;;;;;9.1;8.2;;;;;;;22.36;73.55664;941.443;;;;
2022/07/21 01:21:56;;;;;;;11.6;8.6;;;;;;;22.36;73.36914;941.3667;;;;
2022/07/21 01:24:22;;;;;;;10.3;8.4;;;;;;;22.24;73.45605;941.4009;;;;
2022/07/21 01:26:47;;;;;;;8.7;7.8;;;;;;;22.17;73.87793;941.3997;;;;
2022/07/21 01:29:13;;;;;;;9.2;8;;;;;;;22.1;74.6748;941.4933;;;;
2022/07/21 01:31:38;;;;;;;9.4;8.5;;;;;;;22.12;74.64355;941.51;;;;
2022/07/21 01:34:05;;;;;;;10.5;8.3;;;;;;;22.06;74.41113;941.5563;;;;
2022/07/21 01:36:30;;;;;;;8.6;7.8;;;;;;;21.92;75.30078;941.5259;;;;
2022/07/21 01:41:33;;;;;;;10.3;9.3;;;;;;;21.63;76.41016;941.4998;;;;
2022/07/21 01:43:49;;;;;;;9.6;8.6;;;;;;;21.68;76.08008;941.4958;;;;
2022/07/21 01:46:14;;;;;;;9.2;8.3;;;;;;;21.69;76.37402;941.5208;;;;
2022/07/21 01:48:42;;;;;;;10;8.3;;;;;;;21.79;75.7832;941.5519;;;;
2022/07/21 01:51:07;;;;;;;11.2;8.5;;;;;;;21.76;75.97754;941.5851;;;;
2022/07/21 01:53:34;;;;;;;11;8.9;;;;;;;21.78;76.08691;941.5367;;;;
2022/07/21 01:55:59;;;;;;;9.1;8.2;;;;;;;21.8;76.21875;941.5101;;;;
2022/07/21 01:58:25;;;;;;;9.9;8.4;;;;;;;21.86;75.78418;941.5289;;;;
2022/07/21 02:00:50;;;;;;;10.7;8.4;;;;;;;21.93;75.50195;941.5352;;;;
2022/07/21 02:03:17;;;;;;;9.8;8.8;;;;;;;21.92;75.125;941.5145;;;;
2022/07/21 02:05:43;;;;;;;9.7;8.8;;;;;;;21.91;75.50879;941.5683;;;;
2022/07/21 02:08:08;;;;;;;9.7;8.7;;;;;;;21.87;75.47949;941.4883;;;;
2022/07/21 02:10:33;;;;;;;10.1;9.1;;;;;;;21.92;75.06641;941.5048;;;;
2022/07/21 02:12:59;;;;;;;11.3;8.9;;;;;;;21.87;75.05762;941.4558;;;;
2022/07/21 02:15:24;;;;;;;10.3;8.5;;;;;;;21.9;75.23926;941.4582;;;;
2022/07/21 02:17:51;;;;;;;9.6;8.7;;;;;;;21.88;75.9375;941.4167;;;;
2022/07/21 02:20:16;;;;;;;9.8;8.5;;;;;;;21.77;76.68066;941.3961;;;;
2022/07/21 02:22:45;;;;;;;12.3;9.5;;;;;;;21.8;75.87891;941.3253;;;;
2022/07/21 02:25:08;;;;;;;9.9;8.9;;;;;;;21.77;76.35254;941.281;;;;
2022/07/21 02:27:37;;;;;;;10.3;8.7;;;;;;;21.73;77.00293;941.2651;;;;
2022/07/21 02:30:02;;;;;;;10.4;8.7;;;;;;;21.74;76.46484;941.2955;;;;
2022/07/21 02:32:31;;;;;;;11.7;8.8;;;;;;;21.6;76.59375;941.3438;;;;
2022/07/21 02:34:59;;;;;;;9.4;8.5;;;;;;;21.51;77.29102;941.3042;;;;
2022/07/21 02:37:24;;;;;;;9.7;8.3;;;;;;;21.52;77.49219;941.342;;;;
2022/07/21 02:39:51;;;;;;;10.1;8.9;;;;;;;21.54;77.08691;941.3148;;;;
2022/07/21 02:42:16;;;;;;;10.5;8.6;;;;;;;21.58;77.08105;941.2838;;;;
2022/07/21 02:44:42;;;;;;;9.7;8.7;;;;;;;21.53;77.24902;941.3003;;;;
2022/07/21 02:47:07;;;;;;;10.6;8.9;;;;;;;21.57;76.95117;941.3455;;;;
2022/07/21 02:49:33;;;;;;;10.1;8.6;;;;;;;21.44;77.52441;941.4667;;;;
2022/07/21 02:52:03;;;;;;;9.4;8.5;;;;;;;21.49;77.60547;941.4059;;;;
2022/07/21 02:54:35;;;;;;;10.5;9.4;;;;;;;21.51;77.48047;941.4686;;;;
2022/07/21 02:57:04;;;;;;;9.9;8.8;;;;;;;21.39;77.46973;941.4927;;;;
2022/07/21 02:59:29;;;;;;;9.4;8.4;;;;;;;21.36;78.01465;941.4975;;;;
2022/07/21 03:01:56;;;;;;;11.1;8.8;;;;;;;21.36;78.24902;941.5331;;;;
2022/07/21 03:04:21;;;;;;;10.2;9.2;;;;;;;21.37;78.16699;941.584;;;;
2022/07/21 03:06:51;;;;;;;11.1;9.5;;;;;;;21.37;78.18066;941.5435;;;;
2022/07/21 03:09:16;;;;;;;10.6;9.5;;;;;;;21.3;78.4502;941.4838;;;;
2022/07/21 03:11:41;;;;;;;9.7;8.8;;;;;;;21.31;78.40332;941.4568;;;;
2022/07/21 03:14:07;;;;;;;11.3;9.7;;;;;;;21.25;78.56934;941.5159;;;;
2022/07/21 03:16:39;;;;;;;10.3;9.2;;;;;;;21.26;78.79297;941.553;;;;
2022/07/21 03:19:07;;;;;;;13;9.3;;;;;;;21.24;78.46191;941.6214;;;;
2022/07/21 03:21:37;;;;;;;10.2;9.2;;;;;;;21.08;79.28711;941.6218;;;;
2022/07/21 03:24:02;;;;;;;9.4;8.4;;;;;;;21.01;79.61328;941.6501;;;;
2022/07/21 03:26:28;;;;;;;10.5;9.4;;;;;;;20.4;82.14453;941.6612;;;;
2022/07/21 03:28:53;;;;;;;10.7;9.6;;;;;;;20.24;83.23438;941.711;;;;
2022/07/21 03:31:21;;;;;;;10.3;9.3;;;;;;;20.42;82.92871;941.7541;;;;
2022/07/21 03:33:49;;;;;;;12.6;10.2;;;;;;;20.46;81.86426;941.7711;;;;
2022/07/21 03:36:17;;;;;;;10.8;9.7;;;;;;;20.52;81.97852;941.8378;;;;
2022/07/21 03:38:46;;;;;;;11.1;10;;;;;;;20.53;82.22559;941.8755;;;;
2022/07/21 03:41:12;;;;;;;10.4;9.3;;;;;;;20.57;81.91895;941.9167;;;;
2022/07/21 03:43:43;;;;;;;10.9;9.5;;;;;;;20.59;81.86426;941.9122;;;;
2022/07/21 03:46:11;;;;;;;10.6;9.4;;;;;;;20.68;81.44824;941.9274;;;;
2022/07/21 03:48:38;;;;;;;11.5;9.3;;;;;;;20.74;81.02734;941.9122;;;;
2022/07/21 03:51:11;;;;;;;10.1;9.1;;;;;;;20.79;80.69824;941.9158;;;;
2022/07/21 03:53:36;;;;;;;13.4;10.1;;;;;;;20.76;80.86719;941.9514;;;;
2022/07/21 03:56:05;;;;;;;12.4;10;;;;;;;20.78;80.91699;941.9476;;;;
2022/07/21 03:58:30;;;;;;;10.6;9.5;;;;;;;20.8;80.90918;942.045;;;;
2022/07/21 04:02:50;;;;;;;10.7;9.6;;;;;;;20.9;80.28418;942.0398;;;;
2022/07/21 04:05:21;;;;;;;11.2;9.8;;;;;;;20.89;80.39941;942.0636;;;;
2022/07/21 04:07:46;;;;;;;10.4;9.3;;;;;;;20.9;80.17871;942.1078;;;;
2022/07/21 04:10:11;;;;;;;11.7;9.3;;;;;;;20.87;80.2793;942.0745;;;;
2022/07/21 04:12:41;;;;;;;9.9;8.8;;;;;;;20.92;79.97266;942.0911;;;;
2022/07/21 04:15:12;;;;;;;11.2;9;;;;;;;20.93;80.11328;942.1103;;;;
2022/07/21 04:17:39;;;;;;;10.5;9.4;;;;;;;20.92;79.68066;942.1542;;;;
2022/07/21 04:20:13;;;;;;;10.6;9.3;;;;;;;20.88;79.58887;942.1205;;;;
2022/07/21 04:22:37;;;;;;;10.6;9.3;;;;;;;20.87;79.84668;942.1506;;;;
2022/07/21 04:25:07;;;;;;;10.1;9;;;;;;;20.86;79.79785;942.1646;;;;
2022/07/21 04:27:32;;;;;;;12.6;9.8;;;;;;;20.88;79.62598;942.1504;;;;
2022/07/21 04:29:59;;;;;;;11;9.8;;;;;;;20.83;79.93164;942.163;;;;
2022/07/21 04:32:24;;;;;;;11.8;9.5;;;;;;;20.81;80.06836;942.2327;;;;
2022/07/21 04:34:49;;;;;;;10.6;9.3;;;;;;;20.84;79.94629;942.2558;;;;
2022/07/21 04:37:17;;;;;;;10.1;9.1;;;;;;;20.77;79.95703;942.2766;;;;
2022/07/21 04:39:42;;;;;;;10.8;9.8;;;;;;;20.83;80.18848;942.3558;;;;
2022/07/21 04:42:13;;;;;;;10.2;9.2;;;;;;;20.87;80.125;942.3596;;;;
2022/07/21 04:44:43;;;;;;;12;9.7;;;;;;;20.89;80.17578;942.4142;;;;
2022/07/21 04:47:13;;;;;;;11.2;9.2;;;;;;;20.91;79.54688;942.3198;;;;
2022/07/21 04:49:38;;;;;;;10.5;9.4;;;;;;;20.9;79.17285;942.4219;;;;
2022/07/21 04:52:06;;;;;;;10.5;9.5;;;;;;;21.01;78.92383;942.437;;;;
2022/07/21 04:54:31;;;;;;;12.5;9.3;;;;;;;21.02;78.97363;942.462;;;;
2022/07/21 04:57:02;;;;;;;11.2;10;;;;;;;21.05;79.25879;942.4494;;;;
2022/07/21 04:59:30;;;;;;;11.4;9.6;;;;;;;21.02;78.97168;942.5139;;;;
2022/07/21 05:01:55;;;;;;;11.6;9.5;;;;;;;21.13;79.01465;942.5997;;;;
2022/07/21 05:04:22;;;;;;;11.3;9.8;;;;;;;21.35;78.94922;942.6071;;;;
2022/07/21 05:06:47;;;;;;;11.4;10.2;;;;;;;21.52;78.94336;942.5535;;;;
2022/07/21 05:09:16;;;;;;;12.6;10.1;;;;;;;21.64;78.87207;942.5911;;;;
2022/07/21 05:11:41;;;;;;;11.3;10.1;;;;;;;21.8;76.10156;942.6113;;;;
2022/07/21 05:14:08;;;;;;;11.1;9.9;;;;;;;21.95;76.19629;942.6425;;;;
2022/07/21 05:16:33;;;;;;;11;9.9;;;;;;;22;76.0166;942.5891;;;;
2022/07/21 05:19:01;;;;;;;11.4;9.5;;;;;;;21.96;76.28125;942.659;;;;
2022/07/21 05:21:26;;;;;;;13.4;10.2;;;;;;;21.99;76.70801;942.6389;;;;
2022/07/21 05:23:52;;;;;;;10.3;8.6;;;;;;;21.82;76.47949;942.5572;;;;
2022/07/21 05:26:17;;;;;;;8.8;8;;;;;;;21.67;77.13184;942.5864;;;;
2022/07/21 05:28:44;;;;;;;9.8;8.4;;;;;;;21.79;76.62695;942.5953;;;;
2022/07/21 05:31:09;;;;;;;9.3;8.3;;;;;;;21.9;76.28125;942.6429;;;;
2022/07/21 05:33:37;;;;;;;10.8;9.1;;;;;;;21.99;75.99316;942.6559;;;;
2022/07/21 05:36:02;;;;;;;9.5;8.6;;;;;;;22.04;75.88477;942.6956;;;;
2022/07/21 05:38:31;;;;;;;11.9;9.8;;;;;;;22.15;75.01074;942.6292;;;;
2022/07/21 05:41:02;;;;;;;10.2;9.2;;;;;;;22.24;74.65234;942.6156;;;;
2022/07/21 05:43:25;;;;;;;11;9.3;;;;;;;22.38;73.88965;942.6003;;;;
2022/07/21 05:45:54;;;;;;;10.4;9.3;;;;;;;22.46;74.52344;942.6494;;;;
2022/07/21 05:48:19;;;;;;;11.1;8.6;;;;;;;22.68;73.70605;942.5658;;;;
2022/07/21 05:50:48;;;;;;;10.4;9.3;;;;;;;23.26;70.14453;942.6252;;;;
2022/07/21 05:53:12;;;;;;;9.8;8.6;;;;;;;23.91;67.34082;942.5992;;;;
2022/07/21 05:55:42;;;;;;;9.5;8.5;;;;;;;24.38;67.0459;942.5297;;;;
2022/07/21 05:58:07;;;;;;;10.7;9.5;;;;;;;24.67;64.6377;942.5784;;;;
2022/07/21 06:00:35;;;;;;;10.5;9.4;;;;;;;24.27;65.70996;942.5991;;;;
2022/07/21 06:03:01;;;;;;;10.8;9.7;;;;;;;24.22;66.82227;942.6219;;;;
2022/07/21 06:05:29;;;;;;;10.1;9.1;;;;;;;24.41;66.35547;942.6124;;;;
2022/07/21 06:07:54;;;;;;;10.4;9.4;;;;;;;24.6;64.86133;942.5745;;;;
2022/07/21 06:10:22;;;;;;;11.5;10.3;;;;;;;24.49;65.37598;942.6195;;;;
2022/07/21 06:12:53;;;;;;;10.9;9.8;;;;;;;24.24;65.54102;942.6133;;;;
2022/07/21 06:15:20;;;;;;;11.8;10;;;;;;;24.33;66.44922;942.6501;;;;
2022/07/21 06:17:43;;;;;;;10.6;9.5;;;;;;;24.29;65.95996;942.6298;;;;
2022/07/21 06:20:08;;;;;;;11.5;10.1;;;;;;;24.22;65.78516;942.6047;;;;
2022/07/21 06:22:35;;;;;;;11.2;10;;;;;;;24.45;65.40625;942.6078;;;;
2022/07/21 06:25:00;;;;;;;10.8;9.7;;;;;;;24.54;66.44531;942.5986;;;;
2022/07/21 06:27:31;;;;;;;10.7;8.9;;;;;;;24.75;64.3418;942.5813;;;;
2022/07/21 06:29:58;;;;;;;9.9;8.8;;;;;;;24.93;64.1084;942.6138;;;;
2022/07/21 06:32:23;;;;;;;9.7;8.4;;;;;;;24.92;64.63867;942.6027;;;;
2022/07/21 06:34:51;;;;;;;9.5;8.5;;;;;;;24.99;64.02148;942.6359;;;;
2022/07/21 06:37:16;;;;;;;10.1;9.1;;;;;;;25.02;63.83789;942.6357;;;;
2022/07/21 06:39:47;;;;;;;9.5;8.5;;;;;;;25.1;64.25098;942.6281;;;;
2022/07/21 06:42:19;;;;;;;9.8;8.8;;;;;;;25.15;64.97852;942.6006;;;;
2022/07/21 06:44:48;;;;;;;9.9;9;;;;;;;25.11;64.03906;942.6365;;;;
2022/07/21 06:47:17;;;;;;;9.7;8.8;;;;;;;25.05;65.4834;942.6666;;;;
2022/07/21 06:49:42;;;;;;;9.5;8.5;;;;;;;25.07;64.24512;942.6895;;;;
2022/07/21 06:52:10;;;;;;;10.2;9.2;;;;;;;25.17;64.07324;942.6632;;;;
2022/07/21 06:54:35;;;;;;;10.9;9.1;;;;;;;25.1;64.5459;942.6785;;;;
2022/07/21 06:57:02;;;;;;;10.4;8.9;;;;;;;25.19;64.65332;942.6895;;;;
2022/07/21 06:59:27;;;;;;;9.5;8.1;;;;;;;25.18;66.36328;942.6842;;;;
2022/07/21 07:01:55;;;;;;;11;9.4;;;;;;;25.18;66.01074;942.7402;;;;
2022/07/21 07:04:19;;;;;;;10.5;9.5;;;;;;;25.52;64.24121;942.6994;;;;
2022/07/21 07:06:50;;;;;;;11.5;10.3;;;;;;;25.52;64.85352;942.7413;;;;
2022/07/21 07:09:11;;;;;;;10.7;9.6;;;;;;;25.57;64.06836;942.7914;;;;
2022/07/21 07:11:36;;;;;;;11.1;9.5;;;;;;;25.65;64.90918;942.7808;;;;
2022/07/21 07:14:01;;;;;;;12.6;9.6;;;;;;;25.63;64.26855;942.7955;;;;
2022/07/21 07:16:27;;;;;;;9.9;8.9;;;;;;;25.07;66.32422;942.8279;;;;
2022/07/21 07:18:53;;;;;;;12.1;8.7;;;;;;;24.9;66.66406;942.808;;;;
2022/07/21 07:21:18;;;;;;;10.5;9.3;;;;;;;25;67.1748;942.8173;;;;
2022/07/21 07:23:44;;;;;;;10.3;9.3;;;;;;;24.72;67.55664;942.8306;;;;
2022/07/21 07:26:10;;;;;;;9.7;8.7;;;;;;;24.83;68.3291;942.8732;;;;
2022/07/21 07:28:36;;;;;;;10;9;;;;;;;25.01;66.45605;942.9597;;;;
2022/07/21 07:31:01;;;;;;;10.1;9;;;;;;;25.12;66.17676;942.91;;;;
2022/07/21 07:33:29;;;;;;;10.3;9.1;;;;;;;25.15;65.5918;942.995;;;;
2022/07/21 07:35:55;;;;;;;9.6;8.6;;;;;;;25.02;65.51465;942.9705;;;;
2022/07/21 07:38:21;;;;;;;10.4;9.3;;;;;;;24.82;67.35938;942.9036;;;;
2022/07/21 07:40:46;;;;;;;9.6;8.6;;;;;;;24.65;67.85254;942.9322;;;;
2022/07/21 07:43:13;;;;;;;9.7;8.8;;;;;;;24.43;67.85449;942.9285;;;;
2022/07/21 07:45:38;;;;;;;9.6;8.7;;;;;;;24.46;68.22461;942.9659;;;;
2022/07/21 07:48:07;;;;;;;10;9;;;;;;;24.06;71.08398;942.9434;;;;
2022/07/21 07:50:37;;;;;;;10.6;9.1;;;;;;;23.85;71.65137;943.0083;;;;
2022/07/21 07:53:02;;;;;;;11.8;9.2;;;;;;;23.71;72.02637;943.0031;;;;
2022/07/21 07:55:30;;;;;;;9.7;8.6;;;;;;;23.66;72.72461;942.9997;;;;
2022/07/21 07:57:55;;;;;;;11.5;9.6;;;;;;;23.69;72.74121;942.9745;;;;
2022/07/21 08:00:23;;;;;;;10.5;9.4;;;;;;;23.65;72.97168;942.978;;;;
2022/07/21 08:02:47;;;;;;;10.8;9.7;;;;;;;23.43;74.67676;942.9424;;;;
2022/07/21 08:05:15;;;;;;;10.6;9.5;;;;;;;23.5;74.61621;942.9255;;;;
2022/07/21 08:07:40;;;;;;;15.1;9.7;;;;;;;23.45;74.81934;942.9338;;;;
2022/07/21 08:10:07;;;;;;;11.4;9.7;;;;;;;23.17;76.27637;942.9091;;;;
2022/07/21 08:12:32;;;;;;;11.5;10.3;;;;;;;23.18;76.36035;942.8811;;;;
2022/07/21 08:14:58;;;;;;;12;10.6;;;;;;;23.19;76.93945;942.9149;;;;
2022/07/21 08:17:24;;;;;;;12.4;10.5;;;;;;;23.24;76.7373;942.9329;;;;
2022/07/21 08:19:49;;;;;;;11.5;10.4;;;;;;;23.3;76.0752;942.9116;;;;
2022/07/21 08:22:18;;;;;;;12;9.9;;;;;;;23.26;76.62109;942.9772;;;;
2022/07/21 08:24:43;;;;;;;11.1;9.9;;;;;;;23.08;77.26074;942.9995;;;;
2022/07/21 08:27:09;;;;;;;11.6;9.9;;;;;;;22.91;77.58398;942.9753;;;;
2022/07/21 08:29:34;;;;;;;10.4;9.4;;;;;;;23.03;76.69922;943.0092;;;;
2022/07/21 08:32:02;;;;;;;11.2;10.1;;;;;;;22.88;77.54199;943.003;;;;
2022/07/21 08:34:27;;;;;;;11.8;9.8;;;;;;;23.02;76.22852;943.0392;;;;
2022/07/21 08:36:53;;;;;;;10.7;9.7;;;;;;;23.13;75.37695;943.0678;;;;
2022/07/21 08:39:18;;;;;;;10.7;9.6;;;;;;;23.14;75.24902;943.0974;;;;
2022/07/21 08:41:45;;;;;;;11.5;10.3;;;;;;;23.24;74.83105;943.068;;;;
2022/07/21 08:44:11;;;;;;;11.2;9.8;;;;;;;23.33;74.57813;943.1022;;;;
2022/07/21 08:46:36;;;;;;;12.7;9.9;;;;;;;23.41;74.31934;943.0998;;;;
2022/07/21 08:49:01;;;;;;;10.1;9.1;;;;;;;23.46;74.17383;943.1181;;;;
2022/07/21 08:51:38;;;;;;;10.7;9.3;;;;;;;23.46;74.24414;943.1083;;;;
2022/07/21 08:54:06;;;;;;;11.1;10;;;;;;;23.48;74.27246;943.0717;;;;
2022/07/21 08:56:31;;;;;;;11.2;9.9;;;;;;;23.56;74.02637;943.0961;;;;
2022/07/21 08:58:58;;;;;;;12.4;10;;;;;;;23.55;74.2832;943.0939;;;;
2022/07/21 09:01:24;;;;;;;10.5;9.4;;;;;;;23.53;74.13867;943.0725;;;;
2022/07/21 09:03:52;;;;;;;11.8;9.5;;;;;;;23.53;74.30371;943.0229;;;;
2022/07/21 09:06:20;;;;;;;11;9.9;;;;;;;23.56;74.79199;943.1067;;;;
2022/07/21 09:08:44;;;;;;;11.8;10.6;;;;;;;23.43;75.63965;943.1384;;;;
2022/07/21 09:11:12;;;;;;;12.9;9.8;;;;;;;23.43;74.95898;943.1473;;;;
2022/07/21 09:13:37;;;;;;;13.4;11.1;;;;;;;23.46;75.16309;943.1755;;;;
2022/07/21 09:16:05;;;;;;;11.5;10.3;;;;;;;23.39;75.69238;943.145;;;;
2022/07/21 09:18:31;;;;;;;12.5;10.4;;;;;;;23.15;76.37793;943.1973;;;;
2022/07/21 09:20:57;;;;;;;14.6;11.5;;;;;;;23.26;76.19922;943.1679;;;;
2022/07/21 09:23:21;;;;;;;36.4;21.6;;;;;;;23.32;76.23242;943.2391;;;;
2022/07/21 09:25:46;;;;;;;15.1;10.8;;;;;;;23.05;75.65723;943.2386;;;;
2022/07/21 09:28:12;;;;;;;11.2;10.1;;;;;;;23.05;75.08301;943.2408;;;;
2022/07/21 09:30:37;;;;;;;12.2;10.9;;;;;;;22.97;76.00781;943.2455;;;;
2022/07/21 09:33:02;;;;;;;14.4;11.8;;;;;;;22.77;77.57031;943.2347;;;;
2022/07/21 09:35:28;;;;;;;13.1;10.6;;;;;;;22.89;76.88574;943.351;;;;
2022/07/21 09:37:53;;;;;;;11.7;10.5;;;;;;;22.94;76.42578;943.2937;;;;
2022/07/21 09:40:19;;;;;;;13.1;11.6;;;;;;;22.88;77.04883;943.3044;;;;
2022/07/21 09:42:44;;;;;;;13.9;11.7;;;;;;;22.69;78.41309;943.3117;;;;
2022/07/21 09:45:18;;;;;;;16;12.4;;;;;;;22.8;78.20898;943.3183;;;;
2022/07/21 09:47:45;;;;;;;15.6;12.1;;;;;;;22.83;76.88867;943.24;;;;
2022/07/21 09:50:10;;;;;;;13.6;11.3;;;;;;;22.99;76.7627;943.2903;;;;
2022/07/21 09:52:40;;;;;;;12;10.7;;;;;;;23.11;76.05566;943.3017;;;;
2022/07/21 09:55:05;;;;;;;14.6;11.5;;;;;;;23.22;75.5332;943.3175;;;;
2022/07/21 09:57:36;;;;;;;13.9;11.4;;;;;;;23.26;75.58691;943.3136;;;;
2022/07/21 10:00:06;;;;;;;14.1;12;;;;;;;23.18;75.18652;943.3148;;;;
2022/07/21 10:02:31;;;;;;;14.7;11.9;;;;;;;23.28;74.89648;943.3747;;;;
2022/07/21 10:04:56;;;;;;;13.7;11.4;;;;;;;23.17;74.78418;943.3381;;;;
2022/07/21 10:07:22;;;;;;;14.2;11.7;;;;;;;23.22;74.60547;943.3917;;;;
2022/07/21 10:09:47;;;;;;;13.3;11.9;;;;;;;23.13;74.93262;943.3967;;;;
2022/07/21 10:12:13;;;;;;;16;12;;;;;;;22.99;75.9873;943.4228;;;;
2022/07/21 10:14:38;;;;;;;15.2;12.4;;;;;;;22.93;76.09473;943.4092;;;;
2022/07/21 10:17:06;;;;;;;12.5;11.2;;;;;;;22.96;76.01758;943.3743;;;;
2022/07/21 10:19:30;;;;;;;14.2;11.5;;;;;;;22.96;76.53613;943.4423;;;;
2022/07/21 10:22:00;;;;;;;14.7;11.9;;;;;;;22.89;76.62793;943.425;;;;
2022/07/21 10:24:25;;;;;;;13.1;11.5;;;;;;;22.85;75.77637;943.4458;;;;
2022/07/21 10:26:54;;;;;;;13.1;11.3;;;;;;;22.82;75.79492;943.4916;;;;
2022/07/21 10:29:21;;;;;;;18.9;12.3;;;;;;;22.85;74.86035;943.4643;;;;
2022/07/21 10:31:48;;;;;;;14;11.9;;;;;;;22.81;74.37207;943.4494;;;;
2022/07/21 10:34:13;;;;;;;12.6;10.8;;;;;;;22.75;75.19531;943.3848;;;;
2022/07/21 10:36:41;;;;;;;12.7;11.3;;;;;;;22.73;74.87598;943.4332;;;;
2022/07/21 10:39:06;;;;;;;15.1;11.9;;;;;;;22.71;75.44629;943.4817;;;;
2022/07/21 10:41:33;;;;;;;13.1;11.2;;;;;;;22.73;74.92285;943.4641;;;;
2022/07/21 10:43:58;;;;;;;14.3;11.7;;;;;;;22.7;75;943.4576;;;;
2022/07/21 10:46:23;;;;;;;15.1;11.6;;;;;;;22.66;75.00391;943.4871;;;;
2022/07/21 10:48:51;;;;;;;13.3;11.7;;;;;;;22.49;75.03418;943.5186;;;;
2022/07/21 10:51:16;;;;;;;13.2;11.8;;;;;;;22.55;74.89063;943.4804;;;;
2022/07/21 10:53:44;;;;;;;14.2;11.4;;;;;;;22.54;73.79883;943.4676;;;;
2022/07/21 10:56:11;;;;;;;13.5;10.6;;;;;;;22.44;73.99414;943.4955;;;;
2022/07/21 10:58:36;;;;;;;12.7;11;;;;;;;22.44;74.27441;943.5273;;;;
2022/07/21 11:01:01;;;;;;;12;10.3;;;;;;;22.44;73.80664;943.5508;;;;
2022/07/21 11:03:28;;;;;;;11.2;9.8;;;;;;;22.44;72.44531;943.6043;;;;
2022/07/21 11:05:52;;;;;;;10.7;9.2;;;;;;;22.3;72.17578;943.625;;;;
2022/07/21 11:08:21;;;;;;;10.3;9.2;;;;;;;22.31;71.08594;943.6644;;;;
2022/07/21 11:10:46;;;;;;;10.1;8.9;;;;;;;22.33;71.51172;943.6548;;;;
2022/07/21 11:13:11;;;;;;;12.5;9;;;;;;;22.44;71.61035;943.6125;;;;
2022/07/21 11:15:36;;;;;;;13.8;9.3;;;;;;;22.43;71.94922;943.6387;;;;
2022/07/21 11:18:02;;;;;;;12.6;8.9;;;;;;;22.48;70.82031;943.5708;;;;
2022/07/21 11:20:31;;;;;;;11.5;8.5;;;;;;;22.67;70.11133;943.5258;;;;
2022/07/21 11:23:02;;;;;;;11.2;8.7;;;;;;;22.77;70.03418;943.5114;;;;
2022/07/21 11:25:24;;;;;;;10.6;9;;;;;;;22.89;69.37012;943.5037;;;;
2022/07/21 11:27:54;;;;;;;12.4;8.9;;;;;;;22.93;69.48242;943.5391;;;;
2022/07/21 11:30:19;;;;;;;9.4;8.4;;;;;;;22.98;68.50293;943.4256;;;;
2022/07/21 11:32:55;;;;;;;11.9;8.9;;;;;;;23;67.80273;943.4711;;;;
2022/07/21 11:35:12;;;;;;;10.5;8.3;;;;;;;23.03;67.20801;943.4358;;;;
2022/07/21 11:37:39;;;;;;;10.6;8.3;;;;;;;23.14;67.43555;943.4852;;;;
2022/07/21 11:40:04;;;;;;;9.4;7.9;;;;;;;23.21;66.86035;943.4869;;;;
2022/07/21 11:42:34;;;;;;;9;8;;;;;;;23.24;67.27441;943.4564;;;;
2022/07/21 11:45:01;;;;;;;10.5;8.1;;;;;;;23.25;66.79395;943.3975;;;;
2022/07/21 11:47:27;;;;;;;10.1;8.1;;;;;;;23.31;68.04883;943.45;;;;
2022/07/21 11:49:53;;;;;;;10.2;8.3;;;;;;;23.32;68.49707;943.4204;;;;
2022/07/21 11:52:20;;;;;;;9.6;8.5;;;;;;;23.37;68.34082;943.3886;;;;
2022/07/21 11:54:44;;;;;;;10.1;8.4;;;;;;;23.45;68.21094;943.372;;;;
2022/07/21 11:57:11;;;;;;;10.7;8.3;;;;;;;23.47;68.47363;943.3143;;;;
2022/07/21 11:59:37;;;;;;;10.4;9.3;;;;;;;23.46;68.80176;943.383;;;;
2022/07/21 12:02:02;;;;;;;10.6;9.2;;;;;;;23.57;68.03027;943.3878;;;;
2022/07/21 12:04:27;;;;;;;9.9;8.9;;;;;;;23.59;67.49023;943.3962;;;;
2022/07/21 12:06:53;;;;;;;12.7;9.6;;;;;;;23.6;68.55176;943.4064;;;;
2022/07/21 12:09:18;;;;;;;12;9.3;;;;;;;23.55;68.70801;943.3864;;;;
2022/07/21 12:11:44;;;;;;;11.4;10.2;;;;;;;23.5;69.37207;943.2711;;;;
2022/07/21 12:14:08;;;;;;;11.2;9.3;;;;;;;23.53;69.97559;943.363;;;;
2022/07/21 12:16:34;;;;;;;11;9.8;;;;;;;23.47;69.36719;943.3445;;;;
2022/07/21 12:19:02;;;;;;;11.2;9.9;;;;;;;23.53;70.79883;943.3798;;;;
2022/07/21 12:21:27;;;;;;;11.1;9.9;;;;;;;23.53;70.0459;943.3042;;;;
2022/07/21 12:23:54;;;;;;;11.5;9.2;;;;;;;23.63;68.26172;943.3983;;;;
2022/07/21 12:26:19;;;;;;;10.8;9.3;;;;;;;23.53;70.31641;943.363;;;;
2022/07/21 12:28:46;;;;;;;11.9;9.7;;;;;;;23.64;68.05273;943.3873;;;;
2022/07/21 12:31:10;;;;;;;10.3;8.5;;;;;;;23.53;68.64648;943.4278;;;;
2022/07/21 12:33:35;;;;;;;12.2;9;;;;;;;23.49;66.95996;943.4081;;;;
2022/07/21 12:36:03;;;;;;;10.4;8.3;;;;;;;23.54;68.07324;943.4258;;;;
2022/07/21 12:38:27;;;;;;;9.9;8.3;;;;;;;23.58;67.7373;943.3679;;;;
2022/07/21 12:40:53;;;;;;;9.3;7.3;;;;;;;23.38;66.82617;943.4608;;;;
2022/07/21 12:43:18;;;;;;;8.2;7.3;;;;;;;23.39;68.03809;943.4068;;;;
2022/07/21 12:45:47;;;;;;;8.7;7.8;;;;;;;23.39;67.26172;943.3531;;;;
2022/07/21 12:48:12;;;;;;;8.6;7.7;;;;;;;23.64;66.79395;943.2906;;;;
2022/07/21 12:50:39;;;;;;;8.8;7.4;;;;;;;23.82;66.30273;943.3042;;;;
2022/07/21 12:53:03;;;;;;;9.8;8.1;;;;;;;23.95;65.62793;943.2351;;;;
2022/07/21 12:55:29;;;;;;;10.7;7.7;;;;;;;24.12;64.87598;943.2594;;;;
2022/07/21 12:57:54;;;;;;;11.5;7.9;;;;;;;24.2;64.47559;943.2679;;;;
2022/07/21 13:00:21;;;;;;;9.8;7.8;;;;;;;24.39;65.43359;943.3173;;;;
2022/07/21 13:02:46;;;;;;;10;8.1;;;;;;;24.5;64.68359;943.3297;;;;
2022/07/21 13:05:14;;;;;;;10.6;8.3;;;;;;;24.56;64.33887;943.3267;;;;
2022/07/21 13:07:39;;;;;;;10.7;8.9;;;;;;;24.38;63.78125;943.3438;;;;
2022/07/21 13:10:07;;;;;;;9.6;8.3;;;;;;;24.27;64.39063;943.2888;;;;
2022/07/21 13:12:32;;;;;;;10.7;8.7;;;;;;;24.13;65.07715;943.3248;;;;
2022/07/21 13:14:58;;;;;;;10.8;8.5;;;;;;;24.23;64.38477;943.2778;;;;
2022/07/21 13:17:28;;;;;;;10.7;8.8;;;;;;;24.3;63.79492;943.2667;;;;
2022/07/21 13:19:55;;;;;;;9.4;7.6;;;;;;;24.36;64.02734;943.3287;;;;
2022/07/21 13:22:20;;;;;;;8.5;7.6;;;;;;;24.44;63.0957;943.3233;;;;
2022/07/21 13:24:48;;;;;;;12.7;8;;;;;;;24.39;63.25391;943.2953;;;;
2022/07/21 13:27:13;;;;;;;10.9;8.3;;;;;;;24.23;63.81836;943.2371;;;;
2022/07/21 13:29:41;;;;;;;9.1;8.1;;;;;;;24.12;63.69727;943.257;;;;
2022/07/21 13:32:06;;;;;;;9.4;8.4;;;;;;;24.11;63.87402;943.2166;;;;
2022/07/21 13:34:32;;;;;;;8.8;7.9;;;;;;;24.24;63.76172;943.2532;;;;
2022/07/21 13:36:57;;;;;;;8.7;7.8;;;;;;;24.27;64.0498;943.2494;;;;
2022/07/21 13:39:28;;;;;;;9.4;7.9;;;;;;;24.33;64.3291;943.2813;;;;
2022/07/21 13:41:56;;;;;;;11.1;8.3;;;;;;;24.36;63.76758;943.2208;;;;
2022/07/21 13:44:21;;;;;;;9.1;8.1;;;;;;;24.42;62.75;943.19;;;;
2022/07/21 13:46:49;;;;;;;8.9;8;;;;;;;24.54;62.62598;943.132;;;;
2022/07/21 13:49:14;;;;;;;10.5;7.9;;;;;;;24.72;62.99316;943.146;;;;
2022/07/21 13:51:42;;;;;;;9.7;7.9;;;;;;;24.53;61.4209;943.1522;;;;
2022/07/21 13:54:07;;;;;;;9.6;7.9;;;;;;;24.49;62.13672;943.1136;;;;
2022/07/21 13:56:33;;;;;;;12.3;7.4;;;;;;;24.64;61.33105;943.0701;;;;
2022/07/21 13:58:58;;;;;;;7.7;6.4;;;;;;;24.79;60.98633;943.0644;;;;
2022/07/21 14:01:28;;;;;;;10.1;7.5;;;;;;;24.93;60.30957;943.0357;;;;
2022/07/21 14:03:51;;;;;;;8.1;6.5;;;;;;;24.99;60.56641;943.0751;;;;
2022/07/21 14:06:18;;;;;;;7.6;6.8;;;;;;;24.97;58.75781;943.1002;;;;
2022/07/21 14:08:43;;;;;;;7;6;;;;;;;25;59.81152;943.0862;;;;
2022/07/21 14:11:10;;;;;;;7.1;6.3;;;;;;;25.16;59.3125;943.0779;;;;
2022/07/21 14:14:06;;;;;;;7.1;6;;;;;;;25.12;59.26074;943.087;;;;